createdAt,value
2023-03-27T00:00:10.601Z,96953.00
2023-03-27T00:04:12.739Z,96965.00
2023-03-27T00:08:15.493Z,96970.00
2023-03-27T00:12:16.651Z,96967.00
2023-03-27T00:16:19.571Z,96970.00
2023-03-27T00:20:22.366Z,97010.00
2023-03-27T00:24:23.515Z,97011.00
2023-03-27T00:28:27.476Z,97012.00
2023-03-27T00:32:28.615Z,97024.00
2023-03-27T00:36:30.563Z,97042.00
2023-03-27T00:40:31.911Z,97040.00
2023-03-27T00:44:33.960Z,97057.00
2023-03-27T00:48:37.034Z,97070.00
2023-03-27T00:52:41.779Z,97057.00
2023-03-27T00:56:44.825Z,96944.00
2023-03-27T01:00:49.626Z,97082.00
2023-03-27T01:04:52.540Z,97091.00
2023-03-27T01:08:53.889Z,97101.00
2023-03-27T01:13:24.082Z,97115.00
2023-03-27T01:17:37.369Z,97126.00
2023-03-27T01:22:05.089Z,97136.00
2023-03-27T01:26:35.649Z,97142.00
2023-03-27T01:30:39.106Z,97155.00
2023-03-27T01:35:03.581Z,97159.00
2023-03-27T01:39:18.318Z,97166.00
2023-03-27T01:43:28.818Z,97171.00
2023-03-27T01:47:51.624Z,97172.00
2023-03-27T01:51:56.441Z,97183.00
2023-03-27T01:56:01.442Z,97191.00
2023-03-27T02:00:18.759Z,97197.00
2023-03-27T02:04:21.155Z,97207.00
2023-03-27T02:08:49.838Z,97216.00
2023-03-27T02:13:00.885Z,97235.00
2023-03-27T02:17:07.051Z,97214.00
2023-03-27T02:21:08.252Z,97222.00
2023-03-27T02:25:25.166Z,97222.00
2023-03-27T02:29:33.064Z,97245.00
2023-03-27T02:33:52.948Z,97253.00
2023-03-27T02:38:16.696Z,97267.00
2023-03-27T02:42:24.801Z,97272.00
2023-03-27T02:46:38.441Z,97282.00
2023-03-27T02:51:10.034Z,97278.00
2023-03-27T02:55:14.856Z,97286.00
2023-03-27T02:59:19.556Z,97295.00
2023-03-27T03:03:27.481Z,97297.00
2023-03-27T03:07:28.718Z,97313.00
2023-03-27T03:11:30.450Z,97298.00
2023-03-27T03:15:31.545Z,97314.00
2023-03-27T03:19:32.623Z,97329.00
2023-03-27T03:23:33.732Z,97343.00
2023-03-27T03:27:34.926Z,97350.00
2023-03-27T03:31:44.869Z,97355.00
2023-03-27T03:35:50.088Z,97361.00
2023-03-27T03:39:51.528Z,97366.00
2023-03-27T03:43:52.775Z,97376.00
2023-03-27T03:47:53.865Z,97397.00
2023-03-27T03:52:03.858Z,97412.00
2023-03-27T03:55:59.731Z,97417.00
2023-03-27T04:00:00.811Z,97433.00
2023-03-27T04:04:02.160Z,97462.00
2023-03-27T04:08:06.613Z,97450.00
2023-03-27T04:12:07.800Z,97453.00
2023-03-27T04:16:09.231Z,97465.00
2023-03-27T04:20:14.504Z,97466.00
2023-03-27T04:24:17.550Z,97480.00
2023-03-27T04:28:20.740Z,97495.00
2023-03-27T04:32:21.969Z,97497.00
2023-03-27T04:36:23.741Z,97493.00
2023-03-27T04:40:25.046Z,97503.00
2023-03-27T04:44:26.183Z,97512.00
2023-03-27T04:48:27.192Z,97530.00
2023-03-27T04:52:29.011Z,97521.00
2023-03-27T04:56:33.064Z,97533.00
2023-03-27T05:00:34.469Z,97545.00
2023-03-27T05:04:35.375Z,97552.00
2023-03-27T05:08:36.576Z,97565.00
2023-03-27T05:12:46.130Z,97567.00
2023-03-27T05:16:51.744Z,97581.00
2023-03-27T05:20:52.790Z,97587.00
2023-03-27T05:24:53.783Z,97604.00
2023-03-27T05:28:55.228Z,97601.00
2023-03-27T05:32:58.201Z,97619.00
2023-03-27T05:37:01.187Z,97624.00
2023-03-27T05:41:03.570Z,97624.00
2023-03-27T05:45:05.122Z,97641.00
2023-03-27T05:49:06.119Z,97644.00
2023-03-27T05:53:10.731Z,97653.00
2023-03-27T05:57:12.009Z,97657.00
2023-03-27T06:01:13.530Z,97662.00
2023-03-27T06:05:15.241Z,97665.00
2023-03-27T06:09:16.380Z,97674.00
2023-03-27T06:13:18.047Z,97690.00
2023-03-27T06:17:19.293Z,97706.00
2023-03-27T06:21:21.138Z,97715.00
2023-03-27T06:25:25.453Z,97734.00
2023-03-27T06:29:28.620Z,97735.00
2023-03-27T06:33:30.383Z,97742.00
2023-03-27T06:37:33.540Z,97736.00
2023-03-27T06:41:35.286Z,97749.00
2023-03-27T06:45:46.900Z,97756.00
2023-03-27T06:49:48.057Z,97750.00
2023-03-27T06:53:49.161Z,97759.00
2023-03-27T06:57:52.764Z,97770.00
2023-03-27T07:01:53.923Z,97767.00
2023-03-27T07:05:55.707Z,97783.00
2023-03-27T07:09:57.086Z,97782.00
2023-03-27T07:13:58.401Z,97794.00
2023-03-27T07:18:02.976Z,97815.00
2023-03-27T07:22:04.183Z,97815.00
2023-03-27T07:26:06.091Z,97825.00
2023-03-27T07:30:11.076Z,97826.00
2023-03-27T07:34:12.281Z,97826.00
2023-03-27T07:38:14.495Z,97843.00
2023-03-27T07:42:15.840Z,97839.00
2023-03-27T07:46:17.132Z,97855.00
2023-03-27T07:50:21.224Z,97856.00
2023-03-27T07:54:24.000Z,97849.00
2023-03-27T07:58:25.386Z,97859.00
2023-03-27T08:02:26.588Z,97863.00
2023-03-27T08:06:27.706Z,97870.00
2023-03-27T08:10:28.868Z,97871.00
2023-03-27T08:14:30.240Z,97880.00
2023-03-27T08:18:31.583Z,97886.00
2023-03-27T08:22:32.764Z,97879.00
2023-03-27T08:26:34.414Z,97897.00
2023-03-27T08:30:35.584Z,97898.00
2023-03-27T08:34:38.095Z,97895.00
2023-03-27T08:38:42.207Z,97915.00
2023-03-27T08:42:45.215Z,97908.00
2023-03-27T08:46:52.705Z,97928.00
2023-03-27T08:51:04.931Z,97918.00
2023-03-27T08:55:17.372Z,97923.00
2023-03-27T08:59:21.378Z,97930.00
2023-03-27T09:03:32.430Z,97939.00
2023-03-27T09:08:01.499Z,97939.00
2023-03-27T09:12:23.676Z,97936.00
2023-03-27T09:16:31.633Z,97933.00
2023-03-27T09:20:42.554Z,97931.00
2023-03-27T09:24:46.465Z,97924.00
2023-03-27T09:29:02.952Z,97936.00
2023-03-27T09:33:05.607Z,97930.00
2023-03-27T09:37:16.025Z,97950.00
2023-03-27T09:41:40.826Z,97962.00
2023-03-27T09:45:43.964Z,97949.00
2023-03-27T09:49:50.989Z,97955.00
2023-03-27T09:53:58.268Z,97948.00
2023-03-27T09:58:12.297Z,97936.00
2023-03-27T10:02:31.035Z,97950.00
2023-03-27T10:06:50.754Z,97960.00
2023-03-27T10:10:59.142Z,97966.00
2023-03-27T10:15:01.661Z,97979.00
2023-03-27T10:19:03.195Z,97942.00
2023-03-27T10:23:09.036Z,97984.00
2023-03-27T10:27:14.099Z,97972.00
2023-03-27T10:31:28.892Z,97968.00
2023-03-27T10:35:40.123Z,97981.00
2023-03-27T10:39:43.420Z,97973.00
2023-03-27T10:43:46.612Z,97976.00
2023-03-27T10:47:51.568Z,97988.00
2023-03-27T10:52:05.522Z,97988.00
2023-03-27T10:56:13.362Z,98003.00
2023-03-27T11:00:25.826Z,97857.00
2023-03-27T11:04:42.916Z,98035.00
2023-03-27T11:09:01.349Z,98017.00
2023-03-27T11:13:06.781Z,98024.00
2023-03-27T11:17:10.522Z,98035.00
2023-03-27T11:21:15.774Z,98058.00
2023-03-27T11:25:23.729Z,98086.00
2023-03-27T11:29:31.805Z,98077.00
2023-03-27T11:33:45.908Z,98085.00
2023-03-27T11:38:02.788Z,98060.00
2023-03-27T11:42:13.517Z,98068.00
2023-03-27T11:46:36.566Z,98066.00
2023-03-27T11:50:51.232Z,98049.00
2023-03-27T11:55:15.535Z,98051.00
2023-03-27T11:59:37.675Z,98049.00
2023-03-27T12:04:04.497Z,98064.00
2023-03-27T12:08:16.202Z,98057.00
2023-03-27T12:12:46.990Z,98054.00
2023-03-27T12:17:00.934Z,98064.00
2023-03-27T12:21:17.612Z,98062.00
2023-03-27T12:25:37.309Z,98050.00
2023-03-27T12:29:51.452Z,98047.00
2023-03-27T12:34:01.809Z,98043.00
2023-03-27T12:38:07.783Z,98057.00
2023-03-27T12:42:18.553Z,98054.00
2023-03-27T12:46:27.988Z,98044.00
2023-03-27T12:50:36.525Z,98042.00
2023-03-27T12:54:38.718Z,98041.00
2023-03-27T12:58:40.927Z,98051.00
2023-03-27T13:03:19.346Z,98051.00
2023-03-27T13:07:33.480Z,98055.00
2023-03-27T13:11:50.546Z,98055.00
2023-03-27T13:16:11.329Z,98063.00
2023-03-27T13:20:25.248Z,98061.00
2023-03-27T13:24:46.879Z,98082.00
2023-03-27T13:28:51.376Z,98119.00
2023-03-27T13:33:11.497Z,98139.00
2023-03-27T13:37:16.505Z,98119.00
2023-03-27T13:41:40.834Z,98114.00
2023-03-27T13:45:51.764Z,98109.00
2023-03-27T13:50:22.616Z,98107.00
2023-03-27T13:54:30.750Z,98107.00
2023-03-27T13:58:52.215Z,98100.00
2023-03-27T14:03:11.979Z,98103.00
2023-03-27T14:07:42.745Z,98103.00
2023-03-27T14:11:53.344Z,98102.00
2023-03-27T14:16:21.983Z,98093.00
2023-03-27T14:20:26.728Z,98088.00
2023-03-27T14:24:46.544Z,98083.00
2023-03-27T14:29:01.271Z,98097.00
2023-03-27T14:33:06.209Z,98098.00
2023-03-27T14:37:29.485Z,98097.00
2023-03-27T14:41:31.634Z,98106.00
2023-03-27T14:45:36.066Z,98111.00
2023-03-27T14:49:40.180Z,98118.00
2023-03-27T14:53:44.387Z,98121.00
2023-03-27T14:57:48.800Z,98124.00
2023-03-27T15:01:52.845Z,98120.00
2023-03-27T15:06:14.781Z,98132.00
2023-03-27T15:10:23.216Z,98132.00
2023-03-27T15:14:26.988Z,98122.00
2023-03-27T15:18:37.804Z,98125.00
2023-03-27T15:22:42.682Z,98112.00
2023-03-27T15:26:44.677Z,98126.00
2023-03-27T15:30:51.015Z,98130.00
2023-03-27T15:34:57.548Z,98123.00
2023-03-27T15:39:00.327Z,98132.00
2023-03-27T15:43:06.207Z,98129.00
2023-03-27T15:47:25.441Z,98138.00
2023-03-27T15:51:30.743Z,98145.00
2023-03-27T15:55:38.620Z,98165.00
2023-03-27T15:59:52.971Z,98167.00
2023-03-27T16:03:47.761Z,98169.00
2023-03-27T16:07:48.982Z,98177.00
2023-03-27T16:11:50.921Z,98169.00
2023-03-27T16:15:57.961Z,98167.00
2023-03-27T16:20:12.371Z,98166.00
2023-03-27T16:24:13.749Z,98168.00
2023-03-27T16:28:17.092Z,98177.00
2023-03-27T16:32:20.894Z,98178.00
2023-03-27T16:36:25.720Z,98183.00
2023-03-27T16:40:26.932Z,98182.00
2023-03-27T16:44:27.895Z,98199.00
2023-03-27T16:48:29.097Z,98206.00
2023-03-27T16:52:31.094Z,98211.00
2023-03-27T16:56:34.167Z,98217.00
2023-03-27T17:00:35.950Z,98207.00
2023-03-27T17:04:37.038Z,98215.00
2023-03-27T17:08:38.360Z,98218.00
2023-03-27T17:12:39.412Z,98225.00
2023-03-27T17:16:40.534Z,98244.00
2023-03-27T17:20:41.480Z,98237.00
2023-03-27T17:24:55.241Z,98243.00
2023-03-27T17:28:47.266Z,98243.00
2023-03-27T17:32:48.460Z,98256.00
2023-03-27T17:36:54.514Z,98260.00
2023-03-27T17:40:53.548Z,98259.00
2023-03-27T17:44:54.797Z,98268.00
2023-03-27T17:48:57.544Z,98278.00
2023-03-27T17:52:58.900Z,98287.00
2023-03-27T17:57:00.845Z,98302.00
2023-03-27T18:01:18.153Z,98296.00
2023-03-27T18:05:19.788Z,98295.00
2023-03-27T18:09:20.844Z,98306.00
2023-03-27T18:13:22.414Z,98313.00
2023-03-27T18:17:23.503Z,98309.00
2023-03-27T18:21:25.098Z,98314.00
2023-03-27T18:25:26.747Z,98317.00
2023-03-27T18:29:29.656Z,98326.00
2023-03-27T18:33:31.294Z,98325.00
2023-03-27T18:37:34.217Z,98329.00
2023-03-27T18:41:35.546Z,98334.00
2023-03-27T18:45:36.626Z,98335.00
2023-03-27T18:49:38.356Z,98338.00
2023-03-27T18:53:40.183Z,98346.00
2023-03-27T18:57:41.412Z,98354.00
2023-03-27T19:01:43.302Z,98355.00
2023-03-27T19:05:44.475Z,98355.00
2023-03-27T19:09:46.022Z,98357.00
2023-03-27T19:13:47.206Z,98350.00
2023-03-27T19:17:48.380Z,98357.00
2023-03-27T19:21:50.245Z,98359.00
2023-03-27T19:25:51.511Z,98371.00
2023-03-27T19:29:53.675Z,98368.00
2023-03-27T19:33:54.749Z,98377.00
2023-03-27T19:42:06.312Z,98379.00
2023-03-27T19:46:16.164Z,98385.00
2023-03-27T19:50:11.642Z,98396.00
2023-03-27T19:54:13.363Z,98396.00
2023-03-27T19:58:14.654Z,98394.00
2023-03-27T20:02:15.927Z,98405.00
2023-03-27T20:06:18.940Z,98409.00
2023-03-27T20:10:21.478Z,98396.00
2023-03-27T20:14:22.467Z,98413.00
2023-03-27T20:18:23.707Z,98407.00
2023-03-27T20:22:26.392Z,98409.00
2023-03-27T20:26:28.975Z,98411.00
2023-03-27T20:30:31.189Z,98414.00
2023-03-27T20:34:32.383Z,98416.00
2023-03-27T20:38:35.793Z,98413.00
2023-03-27T20:42:42.433Z,98433.00
2023-03-27T20:46:50.089Z,98417.00
2023-03-27T20:50:51.829Z,98425.00
2023-03-27T20:54:53.739Z,98417.00
2023-03-27T20:58:54.909Z,98424.00
2023-03-27T21:02:56.352Z,98425.00
2023-03-27T21:06:58.264Z,98435.00
2023-03-27T21:10:59.702Z,98428.00
2023-03-27T21:15:00.985Z,98430.00
2023-03-27T21:19:02.493Z,98436.00
2023-03-27T21:23:03.933Z,98432.00
2023-03-27T21:27:05.471Z,98438.00
2023-03-27T21:31:08.398Z,98438.00
2023-03-27T21:35:09.957Z,98438.00
2023-03-27T21:39:11.185Z,98440.00
2023-03-27T21:43:12.443Z,98431.00
2023-03-27T21:47:14.058Z,98439.00
2023-03-27T21:51:15.311Z,98462.00
2023-03-27T21:55:16.755Z,98441.00
2023-03-27T21:59:18.085Z,98455.00
2023-03-27T22:03:19.428Z,98307.00
2023-03-27T22:07:20.424Z,98457.00
2023-03-27T22:11:21.463Z,98463.00
2023-03-27T22:15:22.573Z,98460.00
2023-03-27T22:19:23.734Z,98466.00
2023-03-27T22:23:25.108Z,98468.00
2023-03-27T22:27:26.130Z,98476.00
2023-03-27T22:31:28.541Z,98474.00
2023-03-27T22:35:29.709Z,98479.00
2023-03-27T22:39:31.134Z,98477.00
2023-03-27T22:43:32.550Z,98489.00
2023-03-27T22:47:33.646Z,98485.00
2023-03-27T22:51:34.882Z,98495.00
2023-03-27T22:55:36.309Z,98499.00
2023-03-27T22:59:37.472Z,98521.00
2023-03-27T23:03:39.122Z,98506.00
2023-03-27T23:07:40.231Z,98500.00
2023-03-27T23:11:43.054Z,98510.00
2023-03-27T23:15:44.044Z,98518.00
2023-03-27T23:19:45.218Z,98518.00
2023-03-27T23:23:46.575Z,98531.00
2023-03-27T23:27:47.854Z,98536.00
2023-03-27T23:31:49.045Z,98523.00
2023-03-27T23:35:55.869Z,98538.00
2023-03-27T23:39:56.910Z,98545.00
2023-03-27T23:43:58.120Z,98543.00
2023-03-27T23:47:59.277Z,98544.00
2023-03-27T23:52:00.403Z,98541.00
2023-03-27T23:56:02.231Z,98550.00
